sensor_id;sensor_type;location;lat;lon;timestamp;temperature;humidity
6252;DHT22;3159;52.414;9.784;2023-05-10T00:01:13;14.90;99.90
6252;DHT22;3159;52.414;9.784;2023-05-10T00:03:40;14.70;99.90
6252;DHT22;3159;52.414;9.784;2023-05-10T00:06:07;14.70;99.90
6252;DHT22;3159;52.414;9.784;2023-05-10T00:08:34;14.70;99.90
6252;DHT22;3159;52.414;9.784;2023-05-10T00:11:01;14.70;99.90
6252;DHT22;3159;52.414;9.784;2023-05-10T00:13:29;14.70;99.90
6252;DHT22;3159;52.414;9.784;2023-05-10T00:15:56;14.80;99.90
6252;DHT22;3159;52.414;9.784;2023-05-10T00:18:23;14.70;99.90
6252;DHT22;3159;52.414;9.784;2023-05-10T00:20:50;14.70;99.90
6252;DHT22;3159;52.414;9.784;2023-05-10T00:23:17;14.70;99.90
6252;DHT22;3159;52.414;9.784;2023-05-10T00:25:44;14.60;99.90
6252;DHT22;3159;52.414;9.784;2023-05-10T00:28:11;14.70;99.90
6252;DHT22;3159;52.414;9.784;2023-05-10T00:30:39;14.50;99.90
6252;DHT22;3159;52.414;9.784;2023-05-10T00:33:06;14.70;99.90
6252;DHT22;3159;52.414;9.784;2023-05-10T00:35:33;14.80;99.90
6252;DHT22;3159;52.414;9.784;2023-05-10T00:38:00;14.80;99.90
6252;DHT22;3159;52.414;9.784;2023-05-10T00:40:27;14.70;99.90
6252;DHT22;3159;52.414;9.784;2023-05-10T00:42:54;14.70;99.90
6252;DHT22;3159;52.414;9.784;2023-05-10T00:45:21;14.70;99.90
6252;DHT22;3159;52.414;9.784;2023-05-10T00:47:49;14.70;99.90
6252;DHT22;3159;52.414;9.784;2023-05-10T00:50:18;14.50;99.90
6252;DHT22;3159;52.414;9.784;2023-05-10T00:52:45;14.50;99.90
6252;DHT22;3159;52.414;9.784;2023-05-10T00:55:12;14.40;99.90
6252;DHT22;3159;52.414;9.784;2023-05-10T00:57:39;14.50;99.90
6252;DHT22;3159;52.414;9.784;2023-05-10T01:00:07;14.50;99.90
6252;DHT22;3159;52.414;9.784;2023-05-10T01:02:34;14.40;99.90
6252;DHT22;3159;52.414;9.784;2023-05-10T01:05:03;14.50;99.90
6252;DHT22;3159;52.414;9.784;2023-05-10T01:07:30;14.70;99.90
6252;DHT22;3159;52.414;9.784;2023-05-10T01:09:57;14.50;99.90
6252;DHT22;3159;52.414;9.784;2023-05-10T01:12:25;14.40;99.90
6252;DHT22;3159;52.414;9.784;2023-05-10T01:14:52;14.40;99.90
6252;DHT22;3159;52.414;9.784;2023-05-10T01:17:19;14.30;99.90
6252;DHT22;3159;52.414;9.784;2023-05-10T01:19:47;14.30;99.90
6252;DHT22;3159;52.414;9.784;2023-05-10T01:22:50;14.20;99.90
6252;DHT22;3159;52.414;9.784;2023-05-10T01:26:02;14.30;99.90
6252;DHT22;3159;52.414;9.784;2023-05-10T01:29:11;14.20;99.90
6252;DHT22;3159;52.414;9.784;2023-05-10T01:32:01;14.20;99.90
6252;DHT22;3159;52.414;9.784;2023-05-10T01:34:35;14.10;99.90
6252;DHT22;3159;52.414;9.784;2023-05-10T01:37:10;14.10;99.90
6252;DHT22;3159;52.414;9.784;2023-05-10T01:39:44;14.00;99.90
6252;DHT22;3159;52.414;9.784;2023-05-10T01:42:16;14.20;99.90
6252;DHT22;3159;52.414;9.784;2023-05-10T01:44:52;14.10;99.90
6252;DHT22;3159;52.414;9.784;2023-05-10T01:47:29;14.10;99.90
6252;DHT22;3159;52.414;9.784;2023-05-10T01:50:02;14.00;99.90
6252;DHT22;3159;52.414;9.784;2023-05-10T01:52:33;14.10;99.90
6252;DHT22;3159;52.414;9.784;2023-05-10T01:55:04;14.00;99.90
6252;DHT22;3159;52.414;9.784;2023-05-10T01:57:34;14.00;99.90
6252;DHT22;3159;52.414;9.784;2023-05-10T02:00:03;14.10;99.90
6252;DHT22;3159;52.414;9.784;2023-05-10T02:02:35;14.10;99.90
6252;DHT22;3159;52.414;9.784;2023-05-10T02:05:05;14.00;99.90
6252;DHT22;3159;52.414;9.784;2023-05-10T02:07:35;14.10;99.90
6252;DHT22;3159;52.414;9.784;2023-05-10T02:10:04;14.00;99.90
6252;DHT22;3159;52.414;9.784;2023-05-10T02:12:35;14.10;99.90
6252;DHT22;3159;52.414;9.784;2023-05-10T02:15:04;14.20;99.90
6252;DHT22;3159;52.414;9.784;2023-05-10T02:17:34;14.00;99.90
6252;DHT22;3159;52.414;9.784;2023-05-10T02:20:02;14.30;99.90
6252;DHT22;3159;52.414;9.784;2023-05-10T02:22:30;14.30;99.90
6252;DHT22;3159;52.414;9.784;2023-05-10T02:24:58;14.20;99.90
6252;DHT22;3159;52.414;9.784;2023-05-10T02:27:27;14.20;99.90
6252;DHT22;3159;52.414;9.784;2023-05-10T02:29:55;13.90;99.90
6252;DHT22;3159;52.414;9.784;2023-05-10T02:32:25;14.00;99.90
6252;DHT22;3159;52.414;9.784;2023-05-10T02:34:54;14.00;99.90
6252;DHT22;3159;52.414;9.784;2023-05-10T02:37:22;13.70;99.90
6252;DHT22;3159;52.414;9.784;2023-05-10T02:39:52;13.80;99.90
6252;DHT22;3159;52.414;9.784;2023-05-10T02:42:25;14.00;99.90
6252;DHT22;3159;52.414;9.784;2023-05-10T02:44:56;13.90;99.90
6252;DHT22;3159;52.414;9.784;2023-05-10T02:47:23;13.60;99.90
6252;DHT22;3159;52.414;9.784;2023-05-10T02:49:50;13.50;99.90
6252;DHT22;3159;52.414;9.784;2023-05-10T02:52:23;13.50;99.90
6252;DHT22;3159;52.414;9.784;2023-05-10T02:54:55;13.20;99.90
6252;DHT22;3159;52.414;9.784;2023-05-10T02:57:26;13.20;99.90
6252;DHT22;3159;52.414;9.784;2023-05-10T02:59:54;13.40;99.90
6252;DHT22;3159;52.414;9.784;2023-05-10T03:02:21;13.60;99.90
6252;DHT22;3159;52.414;9.784;2023-05-10T03:04:48;13.30;99.90
6252;DHT22;3159;52.414;9.784;2023-05-10T03:07:15;13.50;99.90
6252;DHT22;3159;52.414;9.784;2023-05-10T03:09:46;13.40;99.90
6252;DHT22;3159;52.414;9.784;2023-05-10T03:12:18;13.40;99.90
6252;DHT22;3159;52.414;9.784;2023-05-10T03:14:54;13.40;99.90
6252;DHT22;3159;52.414;9.784;2023-05-10T03:17:30;13.30;99.90
6252;DHT22;3159;52.414;9.784;2023-05-10T03:20:03;13.50;99.90
6252;DHT22;3159;52.414;9.784;2023-05-10T03:22:34;13.60;99.90
6252;DHT22;3159;52.414;9.784;2023-05-10T03:25:06;13.30;99.90
6252;DHT22;3159;52.414;9.784;2023-05-10T03:27:36;13.20;99.90
6252;DHT22;3159;52.414;9.784;2023-05-10T03:30:05;13.20;99.90
6252;DHT22;3159;52.414;9.784;2023-05-10T03:32:35;13.20;99.90
6252;DHT22;3159;52.414;9.784;2023-05-10T03:35:06;13.40;99.90
6252;DHT22;3159;52.414;9.784;2023-05-10T03:37:33;13.50;99.90
6252;DHT22;3159;52.414;9.784;2023-05-10T03:40:00;13.40;99.90
6252;DHT22;3159;52.414;9.784;2023-05-10T03:42:29;13.50;99.90
6252;DHT22;3159;52.414;9.784;2023-05-10T03:44:56;13.20;99.90
6252;DHT22;3159;52.414;9.784;2023-05-10T03:47:23;13.10;99.90
6252;DHT22;3159;52.414;9.784;2023-05-10T03:49:50;13.30;99.90
6252;DHT22;3159;52.414;9.784;2023-05-10T03:52:17;13.50;99.90
6252;DHT22;3159;52.414;9.784;2023-05-10T03:54:44;13.10;99.90
6252;DHT22;3159;52.414;9.784;2023-05-10T03:57:10;13.20;99.90
6252;DHT22;3159;52.414;9.784;2023-05-10T03:59:39;13.00;99.90
6252;DHT22;3159;52.414;9.784;2023-05-10T04:02:06;12.90;99.90
6252;DHT22;3159;52.414;9.784;2023-05-10T04:04:33;13.00;99.90
6252;DHT22;3159;52.414;9.784;2023-05-10T04:06:59;13.10;99.90
6252;DHT22;3159;52.414;9.784;2023-05-10T04:09:26;13.00;99.90
6252;DHT22;3159;52.414;9.784;2023-05-10T04:11:53;13.10;99.90
6252;DHT22;3159;52.414;9.784;2023-05-10T04:14:20;12.90;99.90
6252;DHT22;3159;52.414;9.784;2023-05-10T04:16:48;12.90;99.90
6252;DHT22;3159;52.414;9.784;2023-05-10T04:19:15;13.10;99.90
6252;DHT22;3159;52.414;9.784;2023-05-10T04:21:42;12.90;99.90
6252;DHT22;3159;52.414;9.784;2023-05-10T04:24:09;12.90;99.90
6252;DHT22;3159;52.414;9.784;2023-05-10T04:26:36;12.70;99.90
6252;DHT22;3159;52.414;9.784;2023-05-10T04:29:03;12.70;99.90
6252;DHT22;3159;52.414;9.784;2023-05-10T04:31:30;12.80;99.90
6252;DHT22;3159;52.414;9.784;2023-05-10T04:33:58;12.80;99.90
6252;DHT22;3159;52.414;9.784;2023-05-10T04:36:25;12.70;99.90
6252;DHT22;3159;52.414;9.784;2023-05-10T04:38:53;12.80;99.90
6252;DHT22;3159;52.414;9.784;2023-05-10T04:41:20;12.90;99.90
6252;DHT22;3159;52.414;9.784;2023-05-10T04:43:47;13.00;99.90
6252;DHT22;3159;52.414;9.784;2023-05-10T04:46:15;13.00;99.90
6252;DHT22;3159;52.414;9.784;2023-05-10T04:48:41;12.60;99.90
6252;DHT22;3159;52.414;9.784;2023-05-10T04:51:10;12.70;99.90
6252;DHT22;3159;52.414;9.784;2023-05-10T04:53:37;12.80;99.90
6252;DHT22;3159;52.414;9.784;2023-05-10T04:56:05;12.90;99.90
6252;DHT22;3159;52.414;9.784;2023-05-10T04:58:32;12.80;99.90
6252;DHT22;3159;52.414;9.784;2023-05-10T05:01:05;12.80;99.90
6252;DHT22;3159;52.414;9.784;2023-05-10T05:03:32;12.90;99.90
6252;DHT22;3159;52.414;9.784;2023-05-10T05:05:59;13.10;99.90
6252;DHT22;3159;52.414;9.784;2023-05-10T05:08:27;13.10;99.90
6252;DHT22;3159;52.414;9.784;2023-05-10T05:10:54;13.20;99.90
6252;DHT22;3159;52.414;9.784;2023-05-10T05:13:21;13.10;99.90
6252;DHT22;3159;52.414;9.784;2023-05-10T05:15:48;12.60;99.90
6252;DHT22;3159;52.414;9.784;2023-05-10T05:18:15;12.50;99.90
6252;DHT22;3159;52.414;9.784;2023-05-10T05:20:42;12.60;99.90
6252;DHT22;3159;52.414;9.784;2023-05-10T05:23:09;12.70;99.90
6252;DHT22;3159;52.414;9.784;2023-05-10T05:25:37;12.60;99.90
6252;DHT22;3159;52.414;9.784;2023-05-10T05:28:04;12.80;99.90
6252;DHT22;3159;52.414;9.784;2023-05-10T05:30:31;12.90;99.90
6252;DHT22;3159;52.414;9.784;2023-05-10T05:32:58;12.60;99.90
6252;DHT22;3159;52.414;9.784;2023-05-10T05:35:25;12.80;99.90
6252;DHT22;3159;52.414;9.784;2023-05-10T05:37:52;13.10;99.90
6252;DHT22;3159;52.414;9.784;2023-05-10T05:40:18;13.30;99.90
6252;DHT22;3159;52.414;9.784;2023-05-10T05:42:47;13.50;99.90
6252;DHT22;3159;52.414;9.784;2023-05-10T05:45:14;13.80;99.90
6252;DHT22;3159;52.414;9.784;2023-05-10T05:47:41;13.90;99.90
6252;DHT22;3159;52.414;9.784;2023-05-10T05:50:09;13.90;99.90
6252;DHT22;3159;52.414;9.784;2023-05-10T05:52:36;14.00;99.90
6252;DHT22;3159;52.414;9.784;2023-05-10T05:55:03;13.40;99.90
6252;DHT22;3159;52.414;9.784;2023-05-10T05:57:31;13.10;99.90
6252;DHT22;3159;52.414;9.784;2023-05-10T05:59:59;12.90;99.90
6252;DHT22;3159;52.414;9.784;2023-05-10T06:02:26;12.70;99.90
6252;DHT22;3159;52.414;9.784;2023-05-10T06:04:53;13.00;99.90
6252;DHT22;3159;52.414;9.784;2023-05-10T06:07:20;13.20;99.90
6252;DHT22;3159;52.414;9.784;2023-05-10T06:09:47;13.50;99.90
6252;DHT22;3159;52.414;9.784;2023-05-10T06:12:13;13.80;99.90
6252;DHT22;3159;52.414;9.784;2023-05-10T06:14:40;13.90;99.90
6252;DHT22;3159;52.414;9.784;2023-05-10T06:17:09;13.80;99.90
6252;DHT22;3159;52.414;9.784;2023-05-10T06:19:36;14.00;99.90
6252;DHT22;3159;52.414;9.784;2023-05-10T06:22:02;13.60;99.90
6252;DHT22;3159;52.414;9.784;2023-05-10T06:24:29;13.90;99.90
6252;DHT22;3159;52.414;9.784;2023-05-10T06:26:56;13.80;99.90
6252;DHT22;3159;52.414;9.784;2023-05-10T06:29:25;13.80;99.90
6252;DHT22;3159;52.414;9.784;2023-05-10T06:31:52;14.00;99.90
6252;DHT22;3159;52.414;9.784;2023-05-10T06:34:21;13.70;99.90
6252;DHT22;3159;52.414;9.784;2023-05-10T06:36:48;12.90;99.90
6252;DHT22;3159;52.414;9.784;2023-05-10T06:39:15;12.90;99.90
6252;DHT22;3159;52.414;9.784;2023-05-10T06:41:42;13.20;99.90
6252;DHT22;3159;52.414;9.784;2023-05-10T06:44:09;13.10;99.90
6252;DHT22;3159;52.414;9.784;2023-05-10T06:46:36;13.30;99.90
6252;DHT22;3159;52.414;9.784;2023-05-10T06:49:03;13.20;99.90
6252;DHT22;3159;52.414;9.784;2023-05-10T06:51:31;12.60;99.90
6252;DHT22;3159;52.414;9.784;2023-05-10T06:53:58;12.90;99.90
6252;DHT22;3159;52.414;9.784;2023-05-10T06:56:25;13.00;99.90
6252;DHT22;3159;52.414;9.784;2023-05-10T06:58:52;13.20;99.90
6252;DHT22;3159;52.414;9.784;2023-05-10T07:01:19;13.10;99.90
6252;DHT22;3159;52.414;9.784;2023-05-10T07:03:46;13.10;99.90
6252;DHT22;3159;52.414;9.784;2023-05-10T07:06:13;13.20;99.90
6252;DHT22;3159;52.414;9.784;2023-05-10T07:08:41;13.50;99.90
6252;DHT22;3159;52.414;9.784;2023-05-10T07:11:08;13.50;99.90
6252;DHT22;3159;52.414;9.784;2023-05-10T07:13:35;13.50;99.90
6252;DHT22;3159;52.414;9.784;2023-05-10T07:16:05;13.60;99.90
6252;DHT22;3159;52.414;9.784;2023-05-10T07:18:32;13.60;99.90
6252;DHT22;3159;52.414;9.784;2023-05-10T07:20:59;13.80;99.90
6252;DHT22;3159;52.414;9.784;2023-05-10T07:23:26;13.80;99.90
6252;DHT22;3159;52.414;9.784;2023-05-10T07:25:54;13.80;99.90
6252;DHT22;3159;52.414;9.784;2023-05-10T07:28:23;13.90;99.90
6252;DHT22;3159;52.414;9.784;2023-05-10T07:30:50;13.80;99.90
6252;DHT22;3159;52.414;9.784;2023-05-10T07:33:17;14.00;99.90
6252;DHT22;3159;52.414;9.784;2023-05-10T07:35:44;13.90;99.90
6252;DHT22;3159;52.414;9.784;2023-05-10T07:38:10;14.00;99.90
6252;DHT22;3159;52.414;9.784;2023-05-10T07:40:39;14.10;99.90
6252;DHT22;3159;52.414;9.784;2023-05-10T07:43:07;14.20;99.90
6252;DHT22;3159;52.414;9.784;2023-05-10T07:45:34;14.40;99.90
6252;DHT22;3159;52.414;9.784;2023-05-10T07:48:01;14.40;99.90
6252;DHT22;3159;52.414;9.784;2023-05-10T07:50:28;14.50;99.90
6252;DHT22;3159;52.414;9.784;2023-05-10T07:52:55;14.60;99.90
6252;DHT22;3159;52.414;9.784;2023-05-10T07:55:22;14.70;99.90
6252;DHT22;3159;52.414;9.784;2023-05-10T07:57:49;14.60;99.90
6252;DHT22;3159;52.414;9.784;2023-05-10T08:00:19;14.70;99.90
6252;DHT22;3159;52.414;9.784;2023-05-10T08:02:46;14.70;99.90
6252;DHT22;3159;52.414;9.784;2023-05-10T08:05:13;14.70;99.90
6252;DHT22;3159;52.414;9.784;2023-05-10T08:07:40;14.50;99.90
6252;DHT22;3159;52.414;9.784;2023-05-10T08:10:08;14.70;99.90
6252;DHT22;3159;52.414;9.784;2023-05-10T08:12:36;14.70;99.90
6252;DHT22;3159;52.414;9.784;2023-05-10T08:15:04;14.70;99.90
6252;DHT22;3159;52.414;9.784;2023-05-10T08:17:33;14.70;99.90
6252;DHT22;3159;52.414;9.784;2023-05-10T08:20:00;14.60;99.90
6252;DHT22;3159;52.414;9.784;2023-05-10T08:22:27;14.60;99.90
6252;DHT22;3159;52.414;9.784;2023-05-10T08:24:54;14.50;99.90
6252;DHT22;3159;52.414;9.784;2023-05-10T08:27:21;14.60;99.90
6252;DHT22;3159;52.414;9.784;2023-05-10T08:29:48;14.70;99.90
6252;DHT22;3159;52.414;9.784;2023-05-10T08:32:15;14.80;99.90
6252;DHT22;3159;52.414;9.784;2023-05-10T08:34:43;14.80;99.90
6252;DHT22;3159;52.414;9.784;2023-05-10T08:37:10;14.90;99.90
6252;DHT22;3159;52.414;9.784;2023-05-10T08:39:38;14.80;99.90
6252;DHT22;3159;52.414;9.784;2023-05-10T08:42:06;14.90;99.90
6252;DHT22;3159;52.414;9.784;2023-05-10T08:44:35;14.90;99.90
6252;DHT22;3159;52.414;9.784;2023-05-10T08:47:05;14.80;99.90
6252;DHT22;3159;52.414;9.784;2023-05-10T08:49:33;15.10;99.90
6252;DHT22;3159;52.414;9.784;2023-05-10T08:52:02;15.20;99.90
6252;DHT22;3159;52.414;9.784;2023-05-10T08:54:31;15.20;99.90
6252;DHT22;3159;52.414;9.784;2023-05-10T08:56:58;15.20;99.90
6252;DHT22;3159;52.414;9.784;2023-05-10T08:59:25;15.20;99.90
6252;DHT22;3159;52.414;9.784;2023-05-10T09:01:54;15.20;99.90
6252;DHT22;3159;52.414;9.784;2023-05-10T09:04:22;15.30;99.90
6252;DHT22;3159;52.414;9.784;2023-05-10T09:06:49;15.30;99.90
6252;DHT22;3159;52.414;9.784;2023-05-10T09:09:18;15.40;99.90
6252;DHT22;3159;52.414;9.784;2023-05-10T09:11:46;15.40;99.90
6252;DHT22;3159;52.414;9.784;2023-05-10T09:14:13;15.30;99.90
6252;DHT22;3159;52.414;9.784;2023-05-10T09:16:41;15.20;99.90
6252;DHT22;3159;52.414;9.784;2023-05-10T09:19:08;15.30;99.90
6252;DHT22;3159;52.414;9.784;2023-05-10T09:21:36;15.20;99.90
6252;DHT22;3159;52.414;9.784;2023-05-10T09:24:04;14.90;99.90
6252;DHT22;3159;52.414;9.784;2023-05-10T09:26:33;15.10;99.90
6252;DHT22;3159;52.414;9.784;2023-05-10T09:29:01;15.10;99.90
6252;DHT22;3159;52.414;9.784;2023-05-10T09:31:46;14.90;99.90
6252;DHT22;3159;52.414;9.784;2023-05-10T09:34:17;14.90;99.90
6252;DHT22;3159;52.414;9.784;2023-05-10T09:36:55;15.00;99.90
6252;DHT22;3159;52.414;9.784;2023-05-10T09:39:31;14.90;99.90
6252;DHT22;3159;52.414;9.784;2023-05-10T09:42:01;15.00;99.90
6252;DHT22;3159;52.414;9.784;2023-05-10T09:44:29;15.10;99.90
6252;DHT22;3159;52.414;9.784;2023-05-10T09:46:56;15.20;99.90
6252;DHT22;3159;52.414;9.784;2023-05-10T09:49:23;15.10;99.90
6252;DHT22;3159;52.414;9.784;2023-05-10T09:52:00;15.10;99.90
6252;DHT22;3159;52.414;9.784;2023-05-10T09:54:28;15.10;99.90
6252;DHT22;3159;52.414;9.784;2023-05-10T09:56:54;15.20;99.90
6252;DHT22;3159;52.414;9.784;2023-05-10T09:59:25;15.20;99.90
6252;DHT22;3159;52.414;9.784;2023-05-10T10:01:53;15.30;99.90
6252;DHT22;3159;52.414;9.784;2023-05-10T10:04:20;15.40;99.90
6252;DHT22;3159;52.414;9.784;2023-05-10T10:06:58;15.50;99.90
6252;DHT22;3159;52.414;9.784;2023-05-10T10:09:27;15.50;99.90
6252;DHT22;3159;52.414;9.784;2023-05-10T10:11:54;15.60;99.90
6252;DHT22;3159;52.414;9.784;2023-05-10T10:14:23;15.60;99.90
6252;DHT22;3159;52.414;9.784;2023-05-10T10:16:51;15.50;99.90
6252;DHT22;3159;52.414;9.784;2023-05-10T10:19:18;15.60;99.90
6252;DHT22;3159;52.414;9.784;2023-05-10T10:21:45;15.50;99.90
6252;DHT22;3159;52.414;9.784;2023-05-10T10:24:12;15.70;99.90
6252;DHT22;3159;52.414;9.784;2023-05-10T10:26:40;15.60;99.90
6252;DHT22;3159;52.414;9.784;2023-05-10T10:29:16;15.80;99.90
6252;DHT22;3159;52.414;9.784;2023-05-10T10:31:51;15.70;99.90
6252;DHT22;3159;52.414;9.784;2023-05-10T10:34:25;15.70;99.90
6252;DHT22;3159;52.414;9.784;2023-05-10T10:36:54;15.80;99.90
6252;DHT22;3159;52.414;9.784;2023-05-10T10:39:22;15.70;99.90
6252;DHT22;3159;52.414;9.784;2023-05-10T10:41:51;15.70;99.90
6252;DHT22;3159;52.414;9.784;2023-05-10T10:44:35;15.70;99.90
6252;DHT22;3159;52.414;9.784;2023-05-10T10:47:23;15.90;99.90
6252;DHT22;3159;52.414;9.784;2023-05-10T10:50:03;16.00;99.90
6252;DHT22;3159;52.414;9.784;2023-05-10T10:52:34;16.20;99.90
6252;DHT22;3159;52.414;9.784;2023-05-10T10:55:03;16.10;99.90
6252;DHT22;3159;52.414;9.784;2023-05-10T10:57:33;16.20;99.90
6252;DHT22;3159;52.414;9.784;2023-05-10T11:00:21;16.30;99.90
6252;DHT22;3159;52.414;9.784;2023-05-10T11:02:51;16.50;99.90
6252;DHT22;3159;52.414;9.784;2023-05-10T11:05:42;16.60;99.90
6252;DHT22;3159;52.414;9.784;2023-05-10T11:08:11;16.80;99.90
6252;DHT22;3159;52.414;9.784;2023-05-10T11:10:39;16.80;99.90
6252;DHT22;3159;52.414;9.784;2023-05-10T11:13:08;16.70;99.90
6252;DHT22;3159;52.414;9.784;2023-05-10T11:15:37;16.60;99.90
6252;DHT22;3159;52.414;9.784;2023-05-10T11:18:19;16.50;99.90
6252;DHT22;3159;52.414;9.784;2023-05-10T11:20:50;16.80;99.90
6252;DHT22;3159;52.414;9.784;2023-05-10T11:23:17;16.70;99.90
6252;DHT22;3159;52.414;9.784;2023-05-10T11:25:45;16.70;99.90
6252;DHT22;3159;52.414;9.784;2023-05-10T11:28:13;16.80;99.90
6252;DHT22;3159;52.414;9.784;2023-05-10T11:30:40;16.90;99.90
6252;DHT22;3159;52.414;9.784;2023-05-10T11:33:08;17.10;99.90
6252;DHT22;3159;52.414;9.784;2023-05-10T11:35:40;17.20;99.90
6252;DHT22;3159;52.414;9.784;2023-05-10T11:38:07;17.10;99.90
6252;DHT22;3159;52.414;9.784;2023-05-10T11:40:34;17.20;99.90
6252;DHT22;3159;52.414;9.784;2023-05-10T11:43:02;17.30;99.90
6252;DHT22;3159;52.414;9.784;2023-05-10T11:45:31;17.40;99.90
6252;DHT22;3159;52.414;9.784;2023-05-10T11:47:59;17.60;99.90
6252;DHT22;3159;52.414;9.784;2023-05-10T11:50:26;17.90;99.90
6252;DHT22;3159;52.414;9.784;2023-05-10T11:52:55;18.00;99.90
6252;DHT22;3159;52.414;9.784;2023-05-10T11:55:22;17.90;99.90
6252;DHT22;3159;52.414;9.784;2023-05-10T11:57:52;18.00;99.90
6252;DHT22;3159;52.414;9.784;2023-05-10T12:00:19;18.20;99.90
6252;DHT22;3159;52.414;9.784;2023-05-10T12:02:46;18.30;99.90
6252;DHT22;3159;52.414;9.784;2023-05-10T12:05:14;18.30;99.90
6252;DHT22;3159;52.414;9.784;2023-05-10T12:07:41;18.50;99.90
6252;DHT22;3159;52.414;9.784;2023-05-10T12:10:10;18.40;99.90
6252;DHT22;3159;52.414;9.784;2023-05-10T12:12:41;18.70;99.90
6252;DHT22;3159;52.414;9.784;2023-05-10T12:15:12;19.00;99.90
6252;DHT22;3159;52.414;9.784;2023-05-10T12:17:39;19.30;99.90
6252;DHT22;3159;52.414;9.784;2023-05-10T12:20:16;19.30;99.90
6252;DHT22;3159;52.414;9.784;2023-05-10T12:22:45;19.10;99.90
6252;DHT22;3159;52.414;9.784;2023-05-10T12:25:13;19.60;99.90
6252;DHT22;3159;52.414;9.784;2023-05-10T12:27:41;19.90;99.90
6252;DHT22;3159;52.414;9.784;2023-05-10T12:30:19;19.90;99.90
6252;DHT22;3159;52.414;9.784;2023-05-10T12:32:46;19.60;99.90
6252;DHT22;3159;52.414;9.784;2023-05-10T12:35:13;19.50;99.90
6252;DHT22;3159;52.414;9.784;2023-05-10T12:37:42;19.40;99.90
6252;DHT22;3159;52.414;9.784;2023-05-10T12:40:10;19.60;99.90
6252;DHT22;3159;52.414;9.784;2023-05-10T12:42:39;19.40;99.90
6252;DHT22;3159;52.414;9.784;2023-05-10T12:45:08;19.50;99.90
6252;DHT22;3159;52.414;9.784;2023-05-10T12:47:35;19.60;99.90
6252;DHT22;3159;52.414;9.784;2023-05-10T12:50:02;19.70;99.90
6252;DHT22;3159;52.414;9.784;2023-05-10T12:52:30;19.50;99.90
6252;DHT22;3159;52.414;9.784;2023-05-10T12:54:58;19.70;99.90
6252;DHT22;3159;52.414;9.784;2023-05-10T12:57:25;20.20;99.90
6252;DHT22;3159;52.414;9.784;2023-05-10T12:59:54;20.00;99.90
6252;DHT22;3159;52.414;9.784;2023-05-10T13:02:21;19.90;99.90
6252;DHT22;3159;52.414;9.784;2023-05-10T13:04:49;19.70;99.90
6252;DHT22;3159;52.414;9.784;2023-05-10T13:07:15;19.80;99.90
6252;DHT22;3159;52.414;9.784;2023-05-10T13:09:42;19.60;99.90
6252;DHT22;3159;52.414;9.784;2023-05-10T13:12:10;19.50;99.90
6252;DHT22;3159;52.414;9.784;2023-05-10T13:14:37;19.40;99.90
6252;DHT22;3159;52.414;9.784;2023-05-10T13:17:07;19.10;99.90
6252;DHT22;3159;52.414;9.784;2023-05-10T13:19:34;19.00;99.90
6252;DHT22;3159;52.414;9.784;2023-05-10T13:22:01;18.70;99.90
6252;DHT22;3159;52.414;9.784;2023-05-10T13:24:28;18.60;99.90
6252;DHT22;3159;52.414;9.784;2023-05-10T13:26:55;18.90;99.90
6252;DHT22;3159;52.414;9.784;2023-05-10T13:29:22;19.10;99.90
6252;DHT22;3159;52.414;9.784;2023-05-10T13:31:49;19.20;99.90
6252;DHT22;3159;52.414;9.784;2023-05-10T13:34:17;19.30;99.90
6252;DHT22;3159;52.414;9.784;2023-05-10T13:36:46;19.30;99.90
6252;DHT22;3159;52.414;9.784;2023-05-10T13:39:13;19.40;99.90
6252;DHT22;3159;52.414;9.784;2023-05-10T13:41:40;19.60;99.90
6252;DHT22;3159;52.414;9.784;2023-05-10T13:44:07;19.60;99.90
6252;DHT22;3159;52.414;9.784;2023-05-10T13:46:33;19.60;99.90
6252;DHT22;3159;52.414;9.784;2023-05-10T13:49:00;19.40;99.90
6252;DHT22;3159;52.414;9.784;2023-05-10T13:51:29;19.40;99.90
6252;DHT22;3159;52.414;9.784;2023-05-10T13:53:57;19.10;99.90
6252;DHT22;3159;52.414;9.784;2023-05-10T13:56:24;19.00;99.90
6252;DHT22;3159;52.414;9.784;2023-05-10T13:58:51;18.80;99.90
6252;DHT22;3159;52.414;9.784;2023-05-10T14:01:18;18.50;99.90
6252;DHT22;3159;52.414;9.784;2023-05-10T14:03:45;18.60;99.90
6252;DHT22;3159;52.414;9.784;2023-05-10T14:06:12;18.70;99.90
6252;DHT22;3159;52.414;9.784;2023-05-10T14:08:40;18.70;99.90
6252;DHT22;3159;52.414;9.784;2023-05-10T14:11:07;18.50;99.90
6252;DHT22;3159;52.414;9.784;2023-05-10T14:13:34;18.40;99.90
6252;DHT22;3159;52.414;9.784;2023-05-10T14:16:01;18.20;99.90
6252;DHT22;3159;52.414;9.784;2023-05-10T14:18:28;18.30;99.90
6252;DHT22;3159;52.414;9.784;2023-05-10T14:20:55;18.20;99.90
6252;DHT22;3159;52.414;9.784;2023-05-10T14:23:22;17.90;99.90
6252;DHT22;3159;52.414;9.784;2023-05-10T14:25:52;18.00;99.90
6252;DHT22;3159;52.414;9.784;2023-05-10T14:28:19;18.00;99.90
6252;DHT22;3159;52.414;9.784;2023-05-10T14:30:46;18.20;99.90
6252;DHT22;3159;52.414;9.784;2023-05-10T14:33:13;18.10;99.90
6252;DHT22;3159;52.414;9.784;2023-05-10T14:35:40;18.20;99.90
6252;DHT22;3159;52.414;9.784;2023-05-10T14:38:07;18.20;99.90
6252;DHT22;3159;52.414;9.784;2023-05-10T14:40:34;18.20;99.90
6252;DHT22;3159;52.414;9.784;2023-05-10T14:43:02;18.10;99.90
6252;DHT22;3159;52.414;9.784;2023-05-10T14:45:29;18.00;99.90
6252;DHT22;3159;52.414;9.784;2023-05-10T14:47:57;17.90;99.90
6252;DHT22;3159;52.414;9.784;2023-05-10T14:50:24;18.10;99.90
6252;DHT22;3159;52.414;9.784;2023-05-10T14:52:51;18.00;99.90
6252;DHT22;3159;52.414;9.784;2023-05-10T14:55:18;18.00;99.90
6252;DHT22;3159;52.414;9.784;2023-05-10T14:57:45;18.10;99.90
6252;DHT22;3159;52.414;9.784;2023-05-10T15:00:17;18.00;99.90
6252;DHT22;3159;52.414;9.784;2023-05-10T15:02:44;18.00;99.90
6252;DHT22;3159;52.414;9.784;2023-05-10T15:05:11;18.00;99.90
6252;DHT22;3159;52.414;9.784;2023-05-10T15:07:38;18.20;99.90
6252;DHT22;3159;52.414;9.784;2023-05-10T15:10:06;18.10;99.90
6252;DHT22;3159;52.414;9.784;2023-05-10T15:12:34;17.90;99.90
6252;DHT22;3159;52.414;9.784;2023-05-10T15:15:00;17.70;99.90
6252;DHT22;3159;52.414;9.784;2023-05-10T15:17:29;17.60;99.90
6252;DHT22;3159;52.414;9.784;2023-05-10T15:19:56;17.80;99.90
6252;DHT22;3159;52.414;9.784;2023-05-10T15:22:23;17.70;99.90
6252;DHT22;3159;52.414;9.784;2023-05-10T15:24:50;17.90;99.90
6252;DHT22;3159;52.414;9.784;2023-05-10T15:27:16;18.10;99.90
6252;DHT22;3159;52.414;9.784;2023-05-10T15:29:43;18.20;99.90
6252;DHT22;3159;52.414;9.784;2023-05-10T15:32:10;18.30;99.90
6252;DHT22;3159;52.414;9.784;2023-05-10T15:34:39;18.40;99.90
6252;DHT22;3159;52.414;9.784;2023-05-10T15:37:06;17.80;99.90
6252;DHT22;3159;52.414;9.784;2023-05-10T15:39:33;17.90;99.90
6252;DHT22;3159;52.414;9.784;2023-05-10T15:42:00;18.00;99.90
6252;DHT22;3159;52.414;9.784;2023-05-10T15:44:28;18.10;99.90
6252;DHT22;3159;52.414;9.784;2023-05-10T15:46:55;18.10;99.90
6252;DHT22;3159;52.414;9.784;2023-05-10T15:49:22;18.00;99.90
6252;DHT22;3159;52.414;9.784;2023-05-10T15:51:50;18.20;99.90
6252;DHT22;3159;52.414;9.784;2023-05-10T15:54:17;18.30;99.90
6252;DHT22;3159;52.414;9.784;2023-05-10T15:56:44;18.20;99.90
6252;DHT22;3159;52.414;9.784;2023-05-10T15:59:11;18.00;99.90
6252;DHT22;3159;52.414;9.784;2023-05-10T16:01:38;18.10;99.90
6252;DHT22;3159;52.414;9.784;2023-05-10T16:04:05;17.30;99.90
6252;DHT22;3159;52.414;9.784;2023-05-10T16:06:33;17.10;99.90
6252;DHT22;3159;52.414;9.784;2023-05-10T16:09:02;16.90;99.90
6252;DHT22;3159;52.414;9.784;2023-05-10T16:11:29;16.60;99.90